Latest Weather Observations for Falls Creek

IDV60801

Issued at 9:02 am EDT Tuesday 27 January 2015 (issued every 30 minutes, with the page automatically refreshed every 10 minutes)

About weather observations | Map of weather stations | Latest weather observations for VIC | Other Formats
Station Details ID: 083084 Name: FALLS CREEK Lat: -36.87 Lon: 147.28 Height: 1765.0 m
Data from the previous 72 hours. | See also: Recent months at Falls Creek
Date/Time
EDT
Temp
°C
App
Temp
°C
Dew
Point
Rel
Hum
%
Delta-T
°C
Wind Press
QNH
hPa
Press
MSL
hPa
Rain
since 9 am
mm
Dir
 
Spd
km/h
Gust
km/h
Spd
kts
Gust
kts
27/09:00am 8.6 4.5 8.6 100 0.0 N 20 28 11 15 1017.5 1009.1 0.0
27/08:30am 8.2 4.2 8.2 100 0.0 N 19 28 10 15 1017.1 1008.7 0.0
27/08:00am 8.0 4.3 8.0 100 0.0 NNW 17 26 9 14 1017.0 1008.6 0.0
27/07:30am 7.6 3.8 7.6 100 0.0 NNW 17 22 9 12 1016.8 1008.3 0.0
27/07:00am 7.3 3.8 7.3 100 0.0 NNW 15 20 8 11 1016.8 1008.3 0.0
27/06:30am 7.2 4.1 7.2 100 0.0 NNW 13 17 7 9 1016.4 1008.0 0.0
27/06:00am 7.1 3.6 7.1 100 0.0 NNW 15 20 8 11 1016.3 1007.9 0.0
27/05:30am 6.6 3.0 6.6 100 0.0 N 15 20 8 11 1015.9 1007.5 0.0
27/05:00am 5.9 3.8 5.9 100 0.0 NNW 6 9 3 5 1016.2 1007.7 0.0
27/04:30am 5.3 2.9 5.3 100 0.0 NE 7 11 4 6 1016.2 1007.7 0.0
27/04:00am 5.0 2.2 5.0 100 0.0 ENE 9 13 5 7 1016.2 1007.7 0.0
27/03:30am 4.6 1.7 4.6 100 0.0 E 9 15 5 8 1016.4 1008.0 0.0
27/03:00am 3.9 0.9 3.9 100 0.0 SE 9 15 5 8 1016.8 1008.3 0.0
27/02:30am 3.8 0.4 3.8 100 0.0 SSE 11 15 6 8 1016.9 1008.5 0.0
27/02:00am 3.8 -0.4 3.8 100 0.0 SE 15 20 8 11 1016.9 1008.5 0.0
27/01:30am 3.8 -0.8 3.8 100 0.0 SE 17 24 9 13 1017.0 1008.6 0.0
27/01:00am 3.8 -1.2 3.8 100 0.0 SE 19 28 10 15 1017.3 1008.8 0.0
27/12:30am 3.8 -1.2 3.8 100 0.0 SSE 19 28 10 15 1017.4 1009.0 0.0
27/12:00am 3.8 -1.2 3.8 100 0.0 SSE 19 30 10 16 1017.4 1009.0 0.0
 
Date/Time
EDT
Temp
°C
App
Temp
°C
Dew
Point
Rel
Hum
%
Delta-T
°C
Wind Press
QNH
hPa
Press
MSL
hPa
Rain
since 9 am
mm
Dir
 
Spd
km/h
Gust
km/h
Spd
kts
Gust
kts
26/11:30pm 3.7 -1.3 3.7 100 0.0 SSE 19 26 10 14 1017.4 1009.0 0.0
26/11:00pm 3.8 -1.4 3.8 100 0.0 SSE 20 32 11 17 1017.4 1009.0 0.0
26/10:30pm 3.8 -1.4 3.8 100 0.0 SSE 20 28 11 15 1017.4 1009.0 0.0
26/10:00pm 3.8 -1.2 3.8 100 0.0 SSE 19 26 10 14 1017.4 1009.0 0.0
26/09:30pm 4.0 -0.9 4.0 100 0.0 SSE 19 28 10 15 1017.4 1009.0 0.0
26/09:00pm 4.0 -1.1 3.9 99 0.0 SE 20 30 11 16 1017.3 1008.8 0.0
26/08:30pm 4.4 -0.1 4.3 99 0.0 SSE 17 28 9 15 1017.0 1008.6 0.0
26/08:00pm 4.5 -0.4 4.1 97 0.2 SSE 19 26 10 14 1016.9 1008.5 0.0
26/07:30pm 5.1 0.2 4.2 94 0.4 SSE 19 28 10 15 1016.7 1008.2 0.0
26/07:00pm 5.5 0.4 4.3 92 0.6 SSE 20 30 11 16 1016.2 1007.7 0.0
26/06:30pm 6.6 2.2 4.8 88 0.9 SSE 17 22 9 12 1016.1 1007.6 0.0
26/06:00pm 7.6 3.2 4.6 81 1.5 SE 17 26 9 14 1015.9 1007.5 0.0
26/05:30pm 9.4 4.7 5.2 75 2.1 ESE 19 24 10 13 1015.9 1007.5 0.0
26/05:00pm 10.0 5.7 5.2 72 2.4 SE 17 22 9 12 1016.1 1007.6 0.0
26/04:30pm 10.0 5.4 5.4 73 2.3 ESE 19 24 10 13 1016.2 1007.7 0.0
26/04:00pm 9.9 5.1 4.9 71 2.5 ESE 19 24 10 13 1016.2 1007.7 0.0
26/03:30pm 11.2 6.9 5.3 67 3.0 ESE 17 24 9 13 1016.1 1007.6 0.0
26/03:00pm 12.7 9.3 2.0 48 5.1 NNW 9 17 5 9 1016.3 1007.9 0.0
26/02:30pm 13.0 8.3 1.0 44 5.6 NNW 15 22 8 12 1016.2 1007.7 0.0
26/02:00pm 11.5 6.8 0.6 47 5.0 NNE 15 22 8 12 1016.3 1007.9 0.0
26/01:30pm 11.5 6.9 1.5 50 4.7 N 15 24 8 13 1016.4 1008.0 0.0
26/01:00pm 10.4 5.8 1.8 55 4.0 N 15 26 8 14 1016.4 1008.0 0.0
26/12:30pm 10.3 6.3 3.1 61 3.5 N 13 24 7 13 1016.4 1008.0 0.0
26/12:00pm 9.7 4.7 1.1 55 3.9 NNW 17 28 9 15 1016.3 1007.9 0.0
26/11:30am 9.9 5.1 0.3 51 4.3 NNW 15 28 8 15 1016.3 1007.9 0.0
26/11:00am 8.9 5.0 1.1 58 3.6 N 11 22 6 12 1016.2 1007.7 0.0
26/10:30am 7.7 4.0 4.5 80 1.6 ENE 13 20 7 11 1016.1 1007.6 0.0
26/10:00am 6.2 3.0 5.2 93 0.5 ESE 11 17 6 9 1015.8 1007.4 0.0
26/09:30am 4.5 2.0 4.5 100 0.0 SE 7 13 4 7 1015.7 1007.2 0.0
26/09:00am 3.4 0.6 3.4 100 0.0 SE 7 13 4 7 1015.7 1007.2 0.0
26/08:30am 3.0 -0.6 3.0 100 0.0 SE 11 17 6 9 1015.5 1007.0 0.0
26/08:00am 2.8 -0.4 2.8 100 0.0 SE 9 15 5 8 1015.2 1006.7 0.0
26/07:30am 2.6 -1.1 2.6 100 0.0 SE 11 19 6 10 1014.6 1006.1 0.0
26/07:00am 2.4 -1.3 2.4 100 0.0 SSE 11 15 6 8 1014.5 1006.0 0.0
26/06:30am 2.4 -1.3 2.4 100 0.0 SSE 11 15 6 8 1014.2 1005.6 0.0
26/06:00am 2.5 -0.8 2.5 100 0.0 SSE 9 13 5 7 1013.8 1005.3 0.0
26/05:30am 2.9 -0.3 2.9 100 0.0 S 9 11 5 6 1013.6 1005.0 0.0
26/05:00am 2.6 -0.3 2.6 100 0.0 SSE 7 7 4 4 1013.3 1004.8 0.0
26/04:30am 2.9 0.1 2.9 100 0.0 S 7 11 4 6 1013.2 1004.7 0.0
26/04:00am 3.0 0.2 2.9 99 0.0 S 7 11 4 6 1013.1 1004.5 0.0
26/03:30am 2.9 1.4 2.8 99 0.0 CALM 0 0 0 0 1013.1 1004.5 0.0
26/03:00am 3.2 0.6 3.1 99 0.0 SSE 6 9 3 5 1013.1 1004.5 0.0
26/02:30am 3.6 0.9 3.6 100 0.0 S 7 9 4 5 1013.1 1004.5 0.0
26/02:00am 4.0 1.5 4.0 100 0.0 SE 6 9 3 5 1013.1 1004.5 0.0
26/01:30am 4.3 1.7 4.3 100 0.0 SE 7 13 4 7 1013.3 1004.8 0.0
26/01:00am 4.5 2.0 4.5 100 0.0 SE 7 11 4 6 1013.2 1004.7 0.0
26/12:30am 4.7 1.4 4.6 99 0.0 SSE 11 15 6 8 1013.3 1004.8 0.0
26/12:00am 4.8 1.9 4.7 99 0.0 SE 9 13 5 7 1013.5 1004.9 0.0
 
Date/Time
EDT
Temp
°C
App
Temp
°C
Dew
Point
Rel
Hum
%
Delta-T
°C
Wind Press
QNH
hPa
Press
MSL
hPa
Rain
since 9 am
mm
Dir
 
Spd
km/h
Gust
km/h
Spd
kts
Gust
kts
25/11:30pm 4.8 1.9 4.7 99 0.0 SSE 9 13 5 7 1013.6 1005.0 0.0
25/11:00pm 4.9 2.0 4.8 99 0.0 SSE 9 13 5 7 1013.6 1005.0 0.0
25/10:30pm 5.1 1.5 5.0 99 0.0 SSE 13 17 7 9 1013.6 1005.0 0.0
25/10:00pm 5.2 2.0 4.9 98 0.1 SSE 11 15 6 8 1013.3 1004.8 0.0
25/09:30pm 5.9 3.0 4.7 92 0.6 SSE 9 15 5 8 1013.1 1004.5 0.0
25/09:00pm 7.8 3.5 0.8 61 3.1 WSW 13 15 7 8 1012.9 1004.3 0.0
25/08:30pm 8.4 4.8 3.1 69 2.5 NW 11 17 6 9 1012.6 1004.0 0.0
25/08:00pm 9.5 6.0 3.7 67 2.8 NW 11 17 6 9 1012.5 1003.9 0.0
25/07:30pm 9.3 5.0 3.5 67 2.8 NNW 15 22 8 12 1011.9 1003.3 0.0
25/07:00pm 10.9 6.4 4.1 63 3.4 NW 17 30 9 16 1011.8 1003.2 0.0
25/06:30pm 11.0 6.6 4.5 64 3.2 NNW 17 26 9 14 1011.8 1003.2 0.0
25/06:00pm 10.7 5.8 4.2 64 3.2 NNW 19 30 10 16 1011.2 1002.6 0.0
25/05:30pm 10.7 5.2 4.2 64 3.2 NNW 22 35 12 19 1011.1 1002.4 0.0
25/05:00pm 10.3 4.1 4.5 67 2.9 N 26 37 14 20 1010.8 1002.2 0.0
25/04:30pm 11.6 6.1 5.9 68 2.9 NNW 24 33 13 18 1010.6 1002.0 0.0
25/04:00pm 11.6 5.8 6.1 69 2.9 NNW 26 43 14 23 1010.5 1001.8 0.0
25/03:30pm 11.7 5.5 6.2 69 2.9 NNW 28 46 15 25 1010.1 1001.5 0.0
25/03:27pm 12.1 6.0 6.4 68 3.0 NNW 28 46 15 25 1010.0 1001.3 0.0
25/03:00pm 12.5 6.4 6.8 68 3.0 NNW 28 41 15 22 1010.1 1001.5 0.0
25/02:30pm 12.4 6.5 7.7 73 2.5 NNW 28 46 15 25 1009.8 1001.1 0.0
25/02:28pm 12.4 6.5 7.3 71 2.7 NNW 28 46 15 25 1009.8 1001.1 0.0
25/02:00pm 12.6 7.1 7.7 72 2.7 NNW 26 37 14 20 1009.8 1001.1 0.0
25/01:30pm 11.6 5.9 6.7 72 2.6 NNW 26 39 14 21 1009.8 1001.1 0.0
25/01:00pm 12.3 6.7 7.0 70 2.8 NNW 26 39 14 21 1009.9 1001.2 0.0
25/12:46pm 11.3 5.2 6.6 73 2.5 NNW 28 50 15 27 1009.8 1001.1 0.0
25/12:30pm 11.7 5.9 6.4 70 2.8 NNW 26 43 14 23 1009.6 1001.0 0.0
25/12:04pm 11.6 5.0 5.9 68 2.9 NNW 30 48 16 26 1009.6 1001.0 0.0
25/12:00pm 11.3 4.3 5.8 69 2.8 NNW 32 44 17 24 1009.5 1000.9 0.0
25/11:30am 10.8 3.3 4.5 65 3.1 NNW 33 52 18 28 1009.0 1000.4 0.0
25/11:04am 10.9 3.9 4.1 63 3.4 NNW 30 48 16 26 1008.9 1000.2 0.0
25/11:00am 11.3 4.2 5.4 67 3.0 NNW 32 48 17 26 1009.2 1000.5 0.0
25/10:30am 10.7 3.4 5.3 69 2.7 NNW 33 52 18 28 1008.7 1000.0 0.0
25/10:22am 10.7 3.1 4.0 63 3.3 NNW 33 52 18 28 1008.8 1000.1 0.0
25/10:00am 10.8 3.5 4.3 64 3.2 NNW 32 48 17 26 1008.8 1000.1 0.0
25/09:39am 10.8 3.5 4.7 66 3.1 NNW 32 50 17 27 1009.0 1000.4 0.0
25/09:30am 10.4 2.7 3.2 61 3.5 NNW 33 50 18 27 1009.0 1000.4 0.0
25/09:14am 10.0 2.9 3.5 64 3.2 NNW 30 50 16 27 1009.2 1000.5 0.0
25/09:00am 9.9 4.1 4.5 69 2.7 NNW 24 37 13 20 1009.3 1000.6 1.2
25/08:30am 9.4 3.7 4.8 73 2.3 NW 24 41 13 22 1009.0 1000.4 1.2
25/08:04am 9.1 2.6 4.9 75 2.1 NNW 28 46 15 25 1008.7 1000.0 1.2
25/08:00am 9.1 3.4 4.7 74 2.2 NW 24 41 13 22 1008.8 1000.1 1.2
25/07:38am 8.8 2.0 5.0 77 1.9 NW 30 48 16 26 1008.7 1000.0 1.2
25/07:30am 8.8 1.5 4.6 75 2.1 NW 32 48 17 26 1008.7 1000.0 1.2
25/07:20am 8.7 2.2 4.9 77 1.9 NW 28 46 15 25 1008.5 999.7 1.2
25/07:00am 8.6 1.4 5.7 82 1.5 NNW 33 50 18 27 1008.2 999.5 1.2
25/06:30am 8.6 1.6 6.2 85 1.2 NNW 32 46 17 25 1007.9 999.1 1.2
25/06:00am 8.8 2.0 7.1 89 0.9 NNW 32 41 17 22 1007.7 999.0 1.2
25/05:30am 9.3 2.5 7.1 86 1.1 NNW 32 44 17 24 1008.0 999.3 1.2
25/05:00am 9.7 3.9 9.6 99 0.1 NNW 30 43 16 23 1007.9 999.1 1.2
25/04:30am 9.7 4.7 9.7 100 0.0 NNW 26 39 14 21 1008.1 999.4 1.2
25/04:00am 10.5 5.4 10.5 100 0.0 NNW 28 35 15 19 1008.1 999.4 1.2
25/03:30am 11.0 6.0 11.0 100 0.0 NNW 28 41 15 22 1008.5 999.7 1.2
25/03:00am 11.4 6.5 11.4 100 0.0 NNW 28 39 15 21 1008.9 1000.2 1.2
25/02:30am 11.9 6.4 11.9 100 0.0 NNW 32 44 17 24 1009.3 1000.6 1.0
25/02:23am 12.1 6.1 12.1 100 0.0 NNW 35 54 19 29 1009.3 1000.6 1.0
25/02:00am 12.5 6.6 12.5 100 0.0 NNW 35 50 19 27 1009.4 1000.7 1.0
25/01:37am 12.8 7.6 12.8 100 0.0 NNW 32 50 17 27 1009.8 1001.1 1.0
25/01:30am 12.8 7.4 12.8 100 0.0 NNW 33 50 18 27 1009.8 1001.1 1.0
25/01:12am 12.6 7.7 12.6 100 0.0 NNW 30 48 16 26 1010.0 1001.3 1.0
25/01:00am 12.4 7.5 12.4 100 0.0 NNW 30 44 16 24 1010.4 1001.7 1.0
25/12:30am 12.3 8.1 12.3 100 0.0 NNW 26 37 14 20 1010.6 1002.0 1.0
25/12:00am 12.6 8.8 12.3 98 0.2 NNW 24 32 13 17 1011.1 1002.4 1.0
 
Date/Time
EDT
Temp
°C
App
Temp
°C
Dew
Point
Rel
Hum
%
Delta-T
°C
Wind Press
QNH
hPa
Press
MSL
hPa
Rain
since 9 am
mm
Dir
 
Spd
km/h
Gust
km/h
Spd
kts
Gust
kts
24/11:30pm 12.7 8.2 12.7 100 0.0 NNW 28 35 15 19 1011.1 1002.4 1.0
24/11:00pm 12.8 8.7 12.8 100 0.0 NNW 26 33 14 18 1011.4 1002.8 1.0
24/10:30pm 12.9 8.9 12.9 100 0.0 NNW 26 33 14 18 1011.7 1003.1 1.0
24/10:00pm 13.3 9.8 13.3 100 0.0 NNW 24 35 13 19 1011.9 1003.3 1.0
24/09:30pm 13.7 10.3 13.7 100 0.0 NNW 24 35 13 19 1011.8 1003.2 1.0
24/09:00pm 13.6 10.6 13.6 100 0.0 NNW 22 30 12 16 1011.5 1002.9 1.0
24/08:30pm 13.5 10.3 13.2 98 0.2 NNW 22 30 12 16 1011.4 1002.8 1.0
24/08:00pm 13.7 11.1 13.7 100 0.0 NNW 20 28 11 15 1011.2 1002.6 1.0
24/07:30pm 14.0 10.7 14.0 100 0.0 NNW 24 32 13 17 1011.0 1002.3 1.0
24/07:00pm 14.3 11.8 14.1 99 0.1 NNW 20 32 11 17 1011.0 1002.3 1.0
24/06:30pm 14.8 12.2 14.8 100 0.0 NNW 22 35 12 19 1011.2 1002.6 1.0
24/06:00pm 14.6 11.5 14.6 100 0.0 NNW 24 37 13 20 1011.4 1002.8 1.0
24/05:30pm 14.8 12.7 14.8 100 0.0 NW 19 32 10 17 1011.7 1003.1 1.0
24/05:00pm 14.8 12.2 14.8 100 0.0 NNW 22 33 12 18 1011.7 1003.1 1.0
24/04:30pm 14.5 11.0 14.5 100 0.0 NNW 26 37 14 20 1011.9 1003.3 1.0
24/04:00pm 14.6 11.5 14.6 100 0.0 NNW 24 35 13 19 1011.9 1003.3 1.0
24/03:30pm 14.5 11.0 14.5 100 0.0 NW 26 37 14 20 1012.4 1003.8 1.0
24/03:00pm 14.1 11.6 14.1 100 0.0 NNW 20 32 11 17 1012.9 1004.3 1.0
24/02:30pm 13.9 11.5 13.7 99 0.1 NNW 19 30 10 16 1013.2 1004.7 1.0
24/02:00pm 14.1 10.8 13.9 99 0.1 NW 24 41 13 22 1013.6 1005.0 0.8
24/01:30pm 16.2 13.5 14.7 91 0.9 NNW 22 41 12 22 1013.3 1004.8 0.0
24/01:00pm 16.9 13.5 13.6 81 2.0 NNW 24 35 13 19 1013.7 1005.2 0.0
24/12:30pm 15.7 12.5 14.2 91 0.9 NNW 24 39 13 21 1014.0 1005.5 0.0
24/12:00pm 14.9 11.0 14.3 96 0.4 NNW 28 35 15 19 1014.0 1005.5 0.0
24/11:30am 14.9 11.8 14.4 97 0.3 NNW 24 37 13 20 1014.3 1005.8 0.0
24/11:20am 14.4 10.3 13.9 97 0.3 NNW 28 46 15 25 1014.2 1005.6 0.0
24/11:00am 14.8 10.1 13.3 91 0.9 NNW 30 44 16 24 1014.2 1005.6 0.0
24/10:30am 13.8 9.1 13.3 97 0.3 NNW 30 39 16 21 1014.2 1005.6 0.0
24/10:00am 13.8 8.7 13.0 95 0.5 NNW 32 41 17 22 1014.0 1005.5 0.0
24/09:30am 13.7 9.3 12.9 95 0.5 NNW 28 41 15 22 1014.2 1005.6 0.0

Other Formats:

Comma delimited format used in spreadsheet applications
http://www.bom.gov.au/fwo/IDV60801/IDV60801.94903.axf

JavaScript Object Notation format (JSON) in row-major order
http://www.bom.gov.au/fwo/IDV60801/IDV60801.94903.json